sensor_id;sensor_type;location;lat;lon;timestamp;P1;durP1;ratioP1;P2;durP2;ratioP2
31686;SDS011;18285;51.330;4.946;2024-03-22T00:18:59;9.30;;;8.32;;
31686;SDS011;18285;51.330;4.946;2024-03-22T00:43:10;10.25;;;8.52;;
31686;SDS011;18285;51.330;4.946;2024-03-22T01:07:21;8.48;;;7.50;;
31686;SDS011;18285;51.330;4.946;2024-03-22T01:31:31;7.88;;;7.07;;
31686;SDS011;18285;51.330;4.946;2024-03-22T01:55:42;7.40;;;6.55;;
31686;SDS011;18285;51.330;4.946;2024-03-22T02:44:08;8.68;;;6.63;;
31686;SDS011;18285;51.330;4.946;2024-03-22T03:08:18;6.00;;;5.40;;
31686;SDS011;18285;51.330;4.946;2024-03-22T03:32:29;7.68;;;6.88;;
31686;SDS011;18285;51.330;4.946;2024-03-22T03:56:40;8.88;;;7.40;;
31686;SDS011;18285;51.330;4.946;2024-03-22T04:20:54;8.23;;;6.70;;
31686;SDS011;18285;51.330;4.946;2024-03-22T04:45:05;9.13;;;6.60;;
31686;SDS011;18285;51.330;4.946;2024-03-22T05:09:16;5.55;;;4.28;;
31686;SDS011;18285;51.330;4.946;2024-03-22T05:33:26;4.70;;;4.20;;
31686;SDS011;18285;51.330;4.946;2024-03-22T05:57:37;6.85;;;4.82;;
31686;SDS011;18285;51.330;4.946;2024-03-22T06:21:48;7.80;;;5.35;;
31686;SDS011;18285;51.330;4.946;2024-03-22T06:45:58;9.70;;;5.90;;
31686;SDS011;18285;51.330;4.946;2024-03-22T07:10:09;10.30;;;6.07;;
31686;SDS011;18285;51.330;4.946;2024-03-22T07:34:20;5.55;;;4.10;;
31686;SDS011;18285;51.330;4.946;2024-03-22T07:58:31;4.45;;;4.05;;
31686;SDS011;18285;51.330;4.946;2024-03-22T08:22:41;3.33;;;2.97;;
31686;SDS011;18285;51.330;4.946;2024-03-22T08:46:52;4.50;;;2.80;;
31686;SDS011;18285;51.330;4.946;2024-03-22T09:11:02;4.05;;;2.50;;
31686;SDS011;18285;51.330;4.946;2024-03-22T09:35:13;3.20;;;2.53;;
31686;SDS011;18285;51.330;4.946;2024-03-22T09:59:24;2.80;;;2.10;;
31686;SDS011;18285;51.330;4.946;2024-03-22T10:23:35;3.13;;;2.50;;
31686;SDS011;18285;51.330;4.946;2024-03-22T10:47:46;2.70;;;2.25;;
31686;SDS011;18285;51.330;4.946;2024-03-22T11:11:58;5.20;;;4.45;;
31686;SDS011;18285;51.330;4.946;2024-03-22T11:36:09;6.47;;;5.30;;
31686;SDS011;18285;51.330;4.946;2024-03-22T12:00:20;6.03;;;4.95;;
31686;SDS011;18285;51.330;4.946;2024-03-22T12:24:32;7.10;;;6.23;;
31686;SDS011;18285;51.330;4.946;2024-03-22T12:48:43;7.85;;;6.65;;
31686;SDS011;18285;51.330;4.946;2024-03-22T13:12:54;8.05;;;7.25;;
31686;SDS011;18285;51.330;4.946;2024-03-22T13:37:04;7.35;;;6.57;;
31686;SDS011;18285;51.330;4.946;2024-03-22T14:01:18;6.55;;;5.63;;
31686;SDS011;18285;51.330;4.946;2024-03-22T14:25:29;6.93;;;5.57;;
31686;SDS011;18285;51.330;4.946;2024-03-22T15:13:55;5.25;;;3.90;;
31686;SDS011;18285;51.330;4.946;2024-03-22T15:38:06;5.60;;;3.40;;
31686;SDS011;18285;51.330;4.946;2024-03-22T16:02:17;7.65;;;2.85;;
31686;SDS011;18285;51.330;4.946;2024-03-22T16:26:28;4.53;;;2.10;;
31686;SDS011;18285;51.330;4.946;2024-03-22T17:14:56;11.45;;;3.70;;
31686;SDS011;18285;51.330;4.946;2024-03-22T17:39:06;8.68;;;3.05;;
31686;SDS011;18285;51.330;4.946;2024-03-22T18:03:17;5.10;;;2.78;;
31686;SDS011;18285;51.330;4.946;2024-03-22T18:27:27;4.68;;;2.42;;
31686;SDS011;18285;51.330;4.946;2024-03-22T18:51:38;3.25;;;2.10;;
31686;SDS011;18285;51.330;4.946;2024-03-22T19:15:52;3.85;;;2.28;;
31686;SDS011;18285;51.330;4.946;2024-03-22T19:40:04;4.30;;;2.10;;
31686;SDS011;18285;51.330;4.946;2024-03-22T20:04:16;2.65;;;2.33;;
31686;SDS011;18285;51.330;4.946;2024-03-22T20:28:26;4.70;;;2.70;;
